Time;durP1;ratioP1;P1;durP2;ratioP2;P2;SDS_P1;SDS_P2;PMS_P1;PMS_P2;Temp;Humidity;BMP_temperature;BMP_pressure;BME280_temperature;BME280_humidity;BME280_pressure;Samples;Min_cycle;Max_cycle;Signal;HPM_P1;HPM_P2
2021/12/13 00:01:32;;;;;;;1.92;0.60;;;19.30;51.10;;;;;;4971670;28;20065;-83
2021/12/13 00:04:06;;;;;;;2.45;0.50;;;19.30;51.10;;;;;;4971937;28;20451;-82
2021/12/13 00:06:35;;;;;;;1.88;0.57;;;19.30;51.20;;;;;;4970764;28;20116;-82
2021/12/13 00:09:11;;;;;;;1.98;0.70;;;19.30;51.10;;;;;;4953301;28;20055;-82
2021/12/13 00:11:48;;;;;;;2.85;0.68;;;19.30;51.10;;;;;;4939775;28;20049;-82
2021/12/13 00:14:22;;;;;;;2.75;0.82;;;19.30;51.10;;;;;;4955897;28;20403;-81
2021/12/13 00:17:06;;;;;;;1.30;0.52;;;19.30;51.20;;;;;;4971776;28;20051;-84
2021/12/13 00:19:35;;;;;;;2.00;0.80;;;19.30;51.10;;;;;;4952279;28;20051;-82
2021/12/13 00:22:09;;;;;;;2.17;0.60;;;19.30;51.10;;;;;;4955505;28;20564;-82
2021/12/13 00:24:36;;;;;;;1.42;0.60;;;19.40;51.20;;;;;;4971186;28;20058;-82
2021/12/13 00:27:17;;;;;;;1.58;0.70;;;19.20;51.10;;;;;;4954849;28;20057;-82
2021/12/13 00:29:47;;;;;;;2.92;0.90;;;19.20;51.10;;;;;;4955766;28;20060;-83
2021/12/13 00:32:22;;;;;;;1.67;0.57;;;19.30;51.20;;;;;;4970873;28;20054;-83
2021/12/13 00:34:54;;;;;;;2.67;0.73;;;19.20;51.10;;;;;;4960941;28;20171;-82
2021/12/13 00:37:28;;;;;;;1.80;0.70;;;19.20;51.10;;;;;;4971200;28;20055;-82
2021/12/13 00:40:03;;;;;;;1.67;0.60;;;19.20;51.10;;;;;;4954354;28;20097;-82
2021/12/13 00:42:34;;;;;;;2.40;0.68;;;19.20;51.10;;;;;;4971036;28;20137;-81
2021/12/13 00:45:03;;;;;;;1.70;0.70;;;19.20;51.20;;;;;;4970919;28;20050;-82
2021/12/13 00:47:30;;;;;;;2.80;0.80;;;19.20;51.10;;;;;;4970656;28;20051;-82
2021/12/13 00:50:08;;;;;;;1.30;0.70;;;19.20;51.10;;;;;;4969405;28;20105;-82
2021/12/13 00:52:35;;;;;;;1.30;0.63;;;19.20;51.20;;;;;;4972286;28;20546;-82
2021/12/13 00:55:00;;;;;;;1.75;0.70;;;19.20;51.10;;;;;;4970366;28;20050;-82
2021/12/13 00:57:29;;;;;;;1.83;0.70;;;19.20;51.10;;;;;;4970503;28;20648;-82
2021/12/13 01:00:04;;;;;;;2.25;0.75;;;19.20;51.20;;;;;;4970257;28;20080;-83
2021/12/13 01:02:52;;;;;;;1.42;0.60;;;19.20;51.20;;;;;;4970272;28;20042;-82
2021/12/13 01:05:24;;;;;;;1.50;0.70;;;19.20;51.20;;;;;;4961088;28;20046;-82
2021/12/13 01:08:08;;;;;;;1.67;0.57;;;19.20;51.20;;;;;;4970418;28;20141;-83
2021/12/13 01:10:55;;;;;;;1.90;0.85;;;19.20;51.20;;;;;;4970382;28;20050;-83
2021/12/13 01:13:22;;;;;;;2.20;0.70;;;19.20;51.20;;;;;;4970583;28;20061;-82
2021/12/13 01:15:54;;;;;;;1.20;0.50;;;19.10;51.10;;;;;;4951507;28;20055;-82
2021/12/13 01:18:55;;;;;;;2.35;0.70;;;19.20;51.20;;;;;;4970131;28;20445;-83
2021/12/13 01:21:38;;;;;;;1.90;0.60;;;19.10;51.30;;;;;;4971468;28;20046;-82
2021/12/13 01:24:10;;;;;;;1.88;0.75;;;19.10;51.20;;;;;;4969250;28;20070;-82
2021/12/13 01:26:39;;;;;;;;;;;19.30;51.30;;;;;;4970667;28;20050;-82
2021/12/13 01:29:12;;;;;;;2.10;0.80;;;19.10;51.20;;;;;;4958695;28;20508;-82
2021/12/13 01:31:41;;;;;;;1.67;0.50;;;19.10;51.20;;;;;;4964494;28;20054;-82
2021/12/13 01:34:07;;;;;;;1.50;0.65;;;20.10;51.70;;;;;;4969935;28;20050;-82
2021/12/13 01:36:46;;;;;;;1.42;0.80;;;19.10;51.20;;;;;;4969994;28;20054;-82
2021/12/13 01:39:15;;;;;;;1.58;0.60;;;19.10;51.20;;;;;;4969608;28;20046;-82
2021/12/13 01:41:44;;;;;;;1.42;0.60;;;19.10;51.20;;;;;;4970348;28;20398;-81
2021/12/13 01:44:15;;;;;;;1.58;0.70;;;19.10;51.20;;;;;;4969210;28;20562;-82
2021/12/13 01:46:44;;;;;;;1.10;0.60;;;19.10;51.20;;;;;;4970370;28;20058;-83
2021/12/13 01:49:09;;;;;;;2.38;0.65;;;19.00;51.20;;;;;;4954024;28;20051;-82
2021/12/13 01:51:35;;;;;;;0.80;0.50;;;19.00;51.20;;;;;;4970382;28;20132;-82
2021/12/13 01:54:15;;;;;;;1.65;0.60;;;19.10;51.20;;;;;;4948490;28;20047;-82
2021/12/13 01:57:09;;;;;;;1.35;0.70;;;19.10;52.00;;;;;;4955015;28;20062;-82
2021/12/13 02:02:12;;;;;;;0.95;0.60;;;19.10;51.30;;;;;;4969908;28;20407;-83
2021/12/13 02:04:38;;;;;;;1.40;0.60;;;19.00;51.20;;;;;;4968445;28;20066;-82
2021/12/13 02:07:04;;;;;;;2.78;0.90;;;19.00;51.20;;;;;;4969455;28;20482;-82
2021/12/13 02:09:32;;;;;;;1.40;0.80;;;19.00;51.20;;;;;;4969918;28;20054;-82
2021/12/13 02:12:01;;;;;;;1.58;0.70;;;19.00;51.20;;;;;;4969114;28;20050;-82
2021/12/13 02:14:29;;;;;;;2.10;0.70;;;19.00;51.20;;;;;;4969368;28;20587;-83
2021/12/13 02:17:17;;;;;;;1.38;0.60;;;19.00;51.20;;;;;;4969482;28;20089;-82
2021/12/13 02:19:59;;;;;;;1.30;0.70;;;19.00;51.20;;;;;;4984780;28;20185;-82
2021/12/13 02:22:47;;;;;;;2.10;0.70;;;19.00;51.30;;;;;;4969776;28;20085;-82
2021/12/13 02:25:18;;;;;;;0.88;0.60;;;19.00;51.30;;;;;;4969007;28;20058;-82
2021/12/13 02:28:07;;;;;;;1.33;0.57;;;19.00;51.30;;;;;;4968282;28;20077;-82
2021/12/13 02:31:01;;;;;;;1.65;0.60;;;19.00;51.30;;;;;;4969842;28;20092;-82
2021/12/13 02:33:30;;;;;;;1.58;0.57;;;19.00;51.30;;;;;;4966775;28;20047;-82
2021/12/13 02:36:08;;;;;;;1.50;0.60;;;19.00;51.30;;;;;;4969700;28;20047;-82
2021/12/13 02:38:34;;;;;;;1.65;0.70;;;19.00;51.40;;;;;;4973107;28;20046;-83
2021/12/13 02:41:00;;;;;;;2.50;0.60;;;19.00;51.30;;;;;;4972307;28;20066;-82
2021/12/13 02:43:29;;;;;;;1.80;0.60;;;19.00;51.30;;;;;;4954248;28;20050;-82
2021/12/13 02:45:55;;;;;;;0.50;0.40;;;19.00;51.30;;;;;;4957477;28;20077;-82
2021/12/13 02:48:32;;;;;;;0.93;0.52;;;19.00;51.30;;;;;;4972416;28;20062;-82
2021/12/13 02:51:04;;;;;;;1.42;0.60;;;19.00;51.30;;;;;;4973090;28;20085;-82
2021/12/13 02:53:39;;;;;;;1.02;0.50;;;19.00;51.40;;;;;;4954765;28;20638;-83
2021/12/13 02:56:04;;;;;;;1.75;0.68;;;19.00;51.40;;;;;;4953057;28;20508;-82
2021/12/13 02:58:30;;;;;;;1.55;0.40;;;18.90;51.30;;;;;;4952222;28;20059;-83
2021/12/13 03:01:00;;;;;;;1.00;0.57;;;18.90;51.30;;;;;;4952421;28;20035;-82
2021/12/13 03:03:28;;;;;;;1.70;0.70;;;18.90;51.30;;;;;;4952068;28;20059;-82
2021/12/13 03:05:55;;;;;;;1.15;0.70;;;18.90;51.30;;;;;;4953322;28;20051;-82
2021/12/13 03:08:25;;;;;;;2.05;0.68;;;18.90;51.60;;;;;;4952669;28;20047;-83
2021/12/13 03:10:56;;;;;;;1.35;0.60;;;18.90;51.30;;;;;;4952101;28;20047;-83
2021/12/13 03:13:22;;;;;;;1.65;0.70;;;18.90;51.30;;;;;;4953261;28;20045;-82
2021/12/13 03:15:57;;;;;;;1.55;0.60;;;18.90;51.30;;;;;;4936447;29;20162;-83
2021/12/13 03:18:31;;;;;;;1.33;0.50;;;18.90;51.30;;;;;;4938182;29;20051;-83
2021/12/13 03:21:12;;;;;;;1.20;0.50;;;18.90;51.40;;;;;;4922260;29;20074;-82
2021/12/13 03:24:26;;;;;;;1.57;0.50;;;18.90;51.40;;;;;;4936597;29;20167;-82
2021/12/13 03:26:57;;;;;;;1.67;0.60;;;18.90;51.40;;;;;;4933543;28;20134;-83
2021/12/13 03:29:52;;;;;;;0.93;0.52;;;18.90;51.40;;;;;;4952444;28;20210;-82
2021/12/13 03:32:18;;;;;;;0.90;0.55;;;18.90;51.40;;;;;;4938494;29;20050;-82
2021/12/13 03:34:52;;;;;;;1.55;0.60;;;18.90;51.40;;;;;;4920904;29;20051;-83
2021/12/13 03:37:20;;;;;;;1.63;0.65;;;18.80;51.40;;;;;;4951688;29;20079;-83
2021/12/13 03:39:48;;;;;;;0.60;0.38;;;18.90;51.40;;;;;;4952536;29;20062;-83
2021/12/13 03:42:35;;;;;;;1.00;0.40;;;18.80;51.30;;;;;;4952593;29;20047;-82
2021/12/13 03:45:06;;;;;;;1.25;0.50;;;18.90;51.40;;;;;;4952109;28;20059;-82
2021/12/13 03:47:38;;;;;;;1.65;0.50;;;18.90;51.40;;;;;;4952170;28;20054;-82
2021/12/13 03:50:09;;;;;;;0.68;0.45;;;18.80;51.40;;;;;;4952404;29;20047;-83
2021/12/13 03:52:35;;;;;;;1.33;0.40;;;18.90;51.40;;;;;;4952716;29;20054;-83
2021/12/13 03:55:01;;;;;;;1.02;0.50;;;18.80;51.40;;;;;;4952741;29;20055;-83
2021/12/13 03:57:27;;;;;;;1.63;0.47;;;18.80;51.40;;;;;;4951595;29;20495;-83
2021/12/13 03:59:52;;;;;;;1.92;0.50;;;18.80;51.40;;;;;;4952512;29;20050;-83
2021/12/13 04:02:24;;;;;;;1.10;0.50;;;18.80;51.40;;;;;;4952767;28;20058;-83
2021/12/13 04:04:55;;;;;;;1.27;0.60;;;18.80;51.40;;;;;;4951782;28;20656;-83
2021/12/13 04:07:27;;;;;;;1.55;0.43;;;18.80;51.40;;;;;;4952210;28;20134;-83
2021/12/13 04:09:55;;;;;;;1.33;0.50;;;18.80;51.40;;;;;;4952113;28;20047;-82
2021/12/13 04:12:31;;;;;;;0.60;0.40;;;18.80;51.40;;;;;;4952023;28;20446;-83
2021/12/13 04:15:01;;;;;;;0.50;0.38;;;18.80;51.40;;;;;;4951891;28;20094;-82
2021/12/13 04:17:57;;;;;;;1.00;0.50;;;18.80;51.40;;;;;;4952064;28;20139;-83
2021/12/13 04:20:26;;;;;;;1.70;0.60;;;18.80;51.40;;;;;;4952174;28;20652;-82
2021/12/13 04:22:54;;;;;;;1.65;0.50;;;18.80;51.40;;;;;;4952126;28;20051;-83
2021/12/13 04:25:22;;;;;;;0.52;0.40;;;18.80;51.40;;;;;;4951467;28;20610;-83
2021/12/13 04:28:32;;;;;;;1.60;0.55;;;19.90;52.70;;;;;;4951604;29;20051;-82
2021/12/13 04:31:00;;;;;;;0.85;0.50;;;18.80;51.40;;;;;;4914367;29;20070;-83
2021/12/13 04:33:36;;;;;;;0.68;0.38;;;20.00;52.10;;;;;;4915076;29;20086;-82
2021/12/13 04:36:09;;;;;;;1.58;0.50;;;18.80;51.50;;;;;;4928569;29;20070;-83
2021/12/13 04:38:49;;;;;;;0.63;0.50;;;18.80;51.50;;;;;;4951499;28;20040;-83
2021/12/13 04:41:37;;;;;;;1.08;0.63;;;18.80;51.50;;;;;;4951193;29;20566;-82
2021/12/13 04:44:08;;;;;;;0.88;0.38;;;18.80;51.50;;;;;;4935723;28;20051;-82
2021/12/13 04:46:34;;;;;;;1.15;0.50;;;18.80;51.50;;;;;;4951166;28;20047;-82
2021/12/13 04:49:03;;;;;;;0.75;0.40;;;18.80;51.50;;;;;;4951676;28;20612;-83
2021/12/13 04:51:45;;;;;;;0.70;0.30;;;18.80;51.50;;;;;;4946701;28;20054;-82
2021/12/13 04:54:11;;;;;;;1.38;0.40;;;18.80;51.50;;;;;;4950414;28;20046;-83
2021/12/13 04:56:37;;;;;;;0.90;0.50;;;18.70;51.40;;;;;;4970818;28;20050;-83
2021/12/13 04:59:07;;;;;;;1.25;0.40;;;18.80;51.50;;;;;;4969739;28;20517;-83
2021/12/13 05:01:32;;;;;;;0.75;0.40;;;18.70;51.40;;;;;;4969347;28;20039;-83
2021/12/13 05:04:01;;;;;;;0.90;0.40;;;18.70;51.50;;;;;;4970562;28;20077;-83
2021/12/13 05:06:29;;;;;;;0.75;0.40;;;18.70;51.50;;;;;;4970307;28;20039;-84
2021/12/13 05:08:56;;;;;;;0.75;0.45;;;18.70;51.50;;;;;;4969619;28;20058;-83
2021/12/13 05:11:23;;;;;;;0.90;0.32;;;18.70;51.50;;;;;;4970483;28;20105;-83
2021/12/13 05:13:53;;;;;;;1.05;0.40;;;18.70;51.50;;;;;;4962098;28;20573;-83
2021/12/13 05:16:38;;;;;;;1.42;0.32;;;18.70;51.50;;;;;;4969471;28;20074;-83
2021/12/13 05:19:04;;;;;;;1.55;0.40;;;18.70;51.50;;;;;;4970152;28;20057;-83
2021/12/13 05:21:36;;;;;;;0.60;0.40;;;18.80;51.50;;;;;;4969866;28;20545;-83
2021/12/13 05:24:04;;;;;;;;;;;18.80;51.50;;;;;;4971073;28;20406;-83
2021/12/13 05:26:36;;;;;;;0.85;0.47;;;18.70;51.50;;;;;;4969913;28;20024;-83
2021/12/13 05:29:04;;;;;;;0.65;0.40;;;18.80;51.60;;;;;;4969766;28;20046;-83
2021/12/13 05:31:29;;;;;;;0.50;0.30;;;18.80;51.60;;;;;;4970632;28;20046;-83
2021/12/13 05:33:58;;;;;;;0.75;0.40;;;18.80;51.60;;;;;;4969906;28;20047;-82
2021/12/13 05:36:26;;;;;;;0.63;0.22;;;18.80;51.70;;;;;;4969782;28;20406;-83
2021/12/13 05:39:14;;;;;;;1.00;0.38;;;18.80;51.70;;;;;;4969932;28;20046;-83
2021/12/13 05:41:40;;;;;;;0.40;0.30;;;18.80;51.70;;;;;;4970066;28;20062;-82
2021/12/13 05:44:10;;;;;;;0.75;0.30;;;20.20;52.40;;;;;;4969794;28;20125;-83
2021/12/13 05:46:39;;;;;;;0.50;0.30;;;18.80;51.70;;;;;;4969705;28;20128;-83
2021/12/13 05:49:18;;;;;;;0.60;0.28;;;18.90;51.80;;;;;;4969890;28;20181;-83
2021/12/13 05:51:46;;;;;;;0.68;0.30;;;18.90;52.50;;;;;;4969525;28;20057;-83
2021/12/13 05:54:26;;;;;;;0.65;0.30;;;18.90;51.80;;;;;;4969933;28;20500;-82
2021/12/13 05:57:00;;;;;;;0.40;0.30;;;17.60;51.10;;;;;;4965980;28;20055;-84
2021/12/13 05:59:32;;;;;;;0.50;0.30;;;19.00;51.90;;;;;;4969786;28;20176;-83
2021/12/13 06:02:12;;;;;;;2.03;0.88;;;19.00;51.80;;;;;;4969662;28;20047;-83
2021/12/13 06:04:40;;;;;;;0.80;0.40;;;19.00;51.80;;;;;;4969088;28;20039;-83
2021/12/13 06:07:23;;;;;;;0.90;0.30;;;19.10;51.90;;;;;;4953918;28;20065;-83
2021/12/13 06:09:56;;;;;;;1.23;0.50;;;19.10;51.80;;;;;;4969962;28;20047;-83
2021/12/13 06:12:33;;;;;;;1.10;0.40;;;19.10;51.80;;;;;;4972678;28;20817;-83
2021/12/13 06:15:10;;;;;;;0.80;0.40;;;19.10;51.80;;;;;;4973349;28;20082;-83
2021/12/13 06:17:36;;;;;;;0.60;0.30;;;19.10;51.70;;;;;;4973205;28;20502;-82
2021/12/13 06:20:07;;;;;;;0.75;0.45;;;19.20;51.70;;;;;;4956960;28;20093;-82
2021/12/13 06:22:34;;;;;;;1.10;0.40;;;19.20;51.70;;;;;;4973557;28;20090;-83
2021/12/13 06:25:15;;;;;;;0.90;0.30;;;19.20;51.70;;;;;;4972782;28;20086;-82
2021/12/13 06:27:51;;;;;;;1.15;0.40;;;19.20;51.70;;;;;;4973307;28;20065;-83
2021/12/13 06:30:24;;;;;;;0.82;0.40;;;19.20;51.60;;;;;;4969089;28;20394;-84
2021/12/13 06:32:51;;;;;;;0.85;0.38;;;19.20;51.60;;;;;;4962098;28;20047;-83
2021/12/13 06:35:51;;;;;;;0.70;0.50;;;19.20;51.60;;;;;;4971262;28;20057;-84
2021/12/13 06:38:19;;;;;;;0.50;0.30;;;19.20;51.50;;;;;;4971919;28;20043;-84
2021/12/13 06:40:59;;;;;;;1.77;0.73;;;19.20;51.60;;;;;;4958355;28;20053;-83
2021/12/13 06:43:29;;;;;;;1.05;0.40;;;19.30;51.60;;;;;;4953716;29;20138;-83
2021/12/13 06:45:55;;;;;;;1.30;0.50;;;19.30;51.60;;;;;;4957921;28;20046;-83
2021/12/13 06:48:54;;;;;;;0.68;0.40;;;19.30;51.50;;;;;;4966792;28;20051;-83
2021/12/13 06:51:20;;;;;;;0.77;0.40;;;19.30;51.50;;;;;;4960390;28;20067;-85
2021/12/13 06:54:06;;;;;;;1.63;0.55;;;19.30;51.50;;;;;;4972792;28;20152;-84
2021/12/13 06:56:33;;;;;;;0.90;0.50;;;19.30;51.50;;;;;;4973278;28;20046;-84
2021/12/13 06:59:00;;;;;;;0.82;0.47;;;19.30;51.40;;;;;;4972896;28;20055;-86
2021/12/13 07:01:26;;;;;;;1.00;0.50;;;19.30;51.40;;;;;;4962527;28;20081;-85
2021/12/13 07:04:18;;;;;;;0.80;0.30;;;19.30;51.40;;;;;;4953500;28;20094;-85
2021/12/13 07:06:44;;;;;;;0.73;0.40;;;19.50;51.50;;;;;;4967794;28;20109;-85
2021/12/13 07:09:16;;;;;;;0.75;0.50;;;19.30;51.40;;;;;;4960280;28;20146;-84
2021/12/13 07:11:56;;;;;;;0.57;0.40;;;19.30;51.40;;;;;;4964357;28;20101;-85
2021/12/13 07:14:36;;;;;;;0.63;0.32;;;19.40;51.50;;;;;;4960665;28;20050;-84
2021/12/13 07:17:15;;;;;;;1.58;0.40;;;19.30;51.40;;;;;;4960619;28;20047;-84
2021/12/13 07:19:43;;;;;;;1.23;0.50;;;19.40;51.40;;;;;;4970398;28;20054;-84
2021/12/13 07:22:17;;;;;;;1.02;0.50;;;19.30;51.40;;;;;;4971151;28;20051;-84
2021/12/13 07:25:08;;;;;;;0.38;0.30;;;19.40;51.40;;;;;;4951817;28;20070;-84
2021/12/13 07:27:35;;;;;;;1.42;0.77;;;20.30;51.90;;;;;;4966355;28;20047;-84
2021/12/13 07:30:11;;;;;;;1.38;0.60;;;19.40;51.50;;;;;;4958859;28;20047;-84
2021/12/13 07:32:59;;;;;;;1.42;0.60;;;19.40;51.40;;;;;;4969400;28;20545;-83
2021/12/13 07:35:46;;;;;;;2.33;0.30;;;19.40;51.40;;;;;;4964417;28;20138;-85
2021/12/13 07:38:17;;;;;;;0.45;0.40;;;19.40;51.40;;;;;;4982618;28;20043;-84
2021/12/13 07:40:45;;;;;;;1.98;0.57;;;19.40;51.40;;;;;;4971719;28;20046;-85
2021/12/13 07:43:27;;;;;;;0.82;0.40;;;19.40;51.40;;;;;;4971599;28;20105;-86
2021/12/13 07:45:59;;;;;;;1.90;0.40;;;19.40;51.40;;;;;;4972015;28;20058;-86
2021/12/13 07:48:27;;;;;;;0.68;0.40;;;19.40;51.40;;;;;;4956497;28;20061;-85
2021/12/13 07:51:10;;;;;;;1.48;0.45;;;19.50;51.40;;;;;;4935607;28;20095;-86
2021/12/13 07:53:47;;;;;;;1.20;0.50;;;19.40;51.40;;;;;;4952451;28;20055;-86
2021/12/13 07:56:19;;;;;;;0.85;0.47;;;19.40;51.30;;;;;;4954243;28;20110;-86
2021/12/13 07:58:46;;;;;;;1.40;0.60;;;19.40;51.30;;;;;;4959277;28;20066;-85
2021/12/13 08:01:34;;;;;;;3.83;0.60;;;19.40;51.40;;;;;;4961962;28;20082;-82
2021/12/13 08:04:07;;;;;;;3.15;1.05;;;19.40;51.40;;;;;;4963311;28;20507;-87
2021/12/13 08:06:34;;;;;;;3.35;1.25;;;19.40;51.30;;;;;;4956105;28;20482;-86
2021/12/13 08:09:03;;;;;;;3.15;1.02;;;19.60;51.30;;;;;;4972040;28;20597;-90
2021/12/13 08:11:34;;;;;;;1.88;0.93;;;19.40;51.20;;;;;;4966208;28;20042;-90
2021/12/13 08:14:13;;;;;;;5.53;1.23;;;19.80;51.60;;;;;;4963082;28;20053;-91
2021/12/13 08:16:44;;;;;;;2.28;0.90;;;20.70;53.00;;;;;;4978952;23;20059;-91
2021/12/13 08:22:50;;;;;;;7.68;1.05;;;18.80;51.30;;;;;;5108100;23;20043;-89
2021/12/13 08:25:32;;;;;;;1.65;0.82;;;19.50;51.80;;;;;;4972061;28;20045;-90
2021/12/13 08:28:17;;;;;;;2.47;1.20;;;18.60;51.20;;;;;;4965421;28;20050;-90
2021/12/13 08:34:28;;;;;;;4.97;2.35;;;18.40;51.30;;;;;;4998528;28;20513;-92
2021/12/13 08:37:54;;;;;;;4.05;1.50;;;19.80;52.10;;;;;;4991342;28;20050;-90
2021/12/13 08:44:23;;;;;;;6.43;2.58;;;19.50;51.90;;;;;;4979116;28;20057;-91
2021/12/13 08:46:51;;;;;;;6.68;2.67;;;19.70;51.80;;;;;;4993156;28;20050;-94
2021/12/13 08:49:39;;;;;;;4.07;2.10;;;19.40;52.40;;;;;;4995348;28;20092;-94
2021/12/13 08:52:28;;;;;;;3.63;1.77;;;19.40;51.70;;;;;;5013775;23;20131;-95
2021/12/13 08:55:43;;;;;;;6.10;2.20;;;20.00;52.00;;;;;;5001074;28;20041;-94
2021/12/13 08:59:05;;;;;;;6.18;2.08;;;19.40;52.20;;;;;;5000884;28;20034;-95
2021/12/13 09:01:44;;;;;;;4.85;1.75;;;19.50;51.70;;;;;;5015307;23;20040;-95
2021/12/13 09:04:39;;;;;;;4.00;1.50;;;19.40;51.70;;;;;;5081276;28;20162;-95
2021/12/13 09:07:29;;;;;;;2.80;1.67;;;19.40;51.70;;;;;;5024028;28;20542;-94
2021/12/13 09:10:34;;;;;;;4.10;1.42;;;19.20;51.80;;;;;;5074456;28;20083;-93
2021/12/13 09:21:17;;;;;;;5.25;2.25;;;19.50;51.90;;;;;;4946724;29;20618;-94
2021/12/13 09:23:50;;;;;;;4.55;1.80;;;19.50;52.00;;;;;;4935478;29;20071;-94
2021/12/13 09:26:24;;;;;;;3.60;1.90;;;19.80;52.60;;;;;;4920869;29;20138;-95
2021/12/13 09:29:04;;;;;;;5.80;2.35;;;18.30;51.40;;;;;;5202672;23;20555;-94
2021/12/13 09:31:48;;;;;;;4.45;1.60;;;19.40;51.90;;;;;;5048352;28;20056;-94
2021/12/13 09:34:32;;;;;;;4.18;1.40;;;19.30;52.50;;;;;;5014162;28;20041;-95
2021/12/13 09:36:57;;;;;;;2.88;1.55;;;20.60;53.60;;;;;;5038906;28;20520;-94
2021/12/13 09:39:27;;;;;;;5.90;1.83;;;20.00;53.20;;;;;;5054860;28;20124;-88
2021/12/13 09:48:46;;;;;;;4.35;1.55;;;20.90;52.90;;;;;;5023562;28;20135;-92
2021/12/13 09:51:36;;;;;;;3.60;1.77;;;19.20;52.20;;;;;;5010431;28;20525;-89
2021/12/13 09:57:26;;;;;;;;;;;;;;;;;;;;;
2021/12/13 10:05:00;;;;;;;3.35;1.75;;;19.00;52.00;;;;;;5000871;28;20079;-92
2021/12/13 10:07:56;;;;;;;4.53;1.60;;;19.30;52.20;;;;;;5009032;28;20049;-94
2021/12/13 10:10:45;;;;;;;3.05;1.50;;;16.90;50.90;;;;;;4960100;28;20049;-95
2021/12/13 10:17:53;;;;;;;3.05;1.45;;;18.80;52.20;;;;;;4930205;29;20055;-88
2021/12/13 10:20:52;;;;;;;2.78;1.30;;;19.50;52.70;;;;;;4953463;28;20042;-91
2021/12/13 10:23:38;;;;;;;2.63;1.15;;;19.30;52.80;;;;;;4983655;28;20057;-94
2021/12/13 10:26:22;;;;;;;3.70;1.38;;;19.30;52.80;;;;;;4991097;28;20062;-90
2021/12/13 10:29:10;;;;;;;3.58;1.48;;;20.80;54.70;;;;;;4993530;28;20413;-93
2021/12/13 10:32:18;;;;;;;3.25;1.58;;;18.70;52.30;;;;;;4993262;28;20053;-93
2021/12/13 10:34:48;;;;;;;3.60;1.38;;;19.20;52.60;;;;;;4994479;28;20046;-89
2021/12/13 10:37:25;;;;;;;3.22;1.48;;;16.90;51.60;;;;;;5012150;28;20450;-90
2021/12/13 10:39:54;;;;;;;6.82;3.22;;;19.30;53.00;;;;;;5002848;28;20120;-91
2021/12/13 10:42:24;;;;;;;5.32;3.00;;;19.30;52.70;;;;;;5013508;28;20045;-91
2021/12/13 10:44:50;;;;;;;5.82;2.80;;;19.30;52.70;;;;;;5011277;28;20386;-91
2021/12/13 10:47:31;;;;;;;5.20;2.67;;;19.30;52.70;;;;;;5012734;28;20103;-91
2021/12/13 10:49:56;;;;;;;7.18;2.88;;;19.30;52.60;;;;;;5011718;28;20771;-92
2021/12/13 10:52:26;;;;;;;4.55;2.20;;;19.30;52.60;;;;;;5011570;28;20525;-91
2021/12/13 10:54:54;;;;;;;4.05;2.22;;;19.30;52.60;;;;;;5012449;28;20448;-91
2021/12/13 10:57:48;;;;;;;4.50;2.15;;;20.90;53.30;;;;;;5012322;28;20484;-91
2021/12/13 11:00:25;;;;;;;4.40;2.05;;;19.30;52.40;;;;;;5012204;28;20057;-90
2021/12/13 11:02:56;;;;;;;4.03;1.98;;;19.30;52.50;;;;;;4996277;28;20096;-91
2021/12/13 11:05:22;;;;;;;5.13;2.10;;;19.30;52.40;;;;;;4996565;28;20109;-92
2021/12/13 11:07:48;;;;;;;4.32;1.60;;;19.30;52.40;;;;;;5012431;28;20875;-89
2021/12/13 11:10:17;;;;;;;5.65;2.08;;;20.10;52.80;;;;;;4990195;28;20710;-88
2021/12/13 11:12:45;;;;;;;4.75;2.08;;;19.30;52.40;;;;;;5017173;28;20064;-93
2021/12/13 11:15:17;;;;;;;4.18;1.73;;;19.50;52.40;;;;;;5015791;28;20128;-92
2021/12/13 11:17:42;;;;;;;3.88;1.60;;;19.70;52.50;;;;;;5029269;28;20056;-93
2021/12/13 11:20:17;;;;;;;4.15;1.50;;;19.30;52.30;;;;;;5017803;28;20481;-92
2021/12/13 11:22:43;;;;;;;2.95;1.50;;;19.30;52.30;;;;;;4987172;28;20537;-92
2021/12/13 11:25:16;;;;;;;6.13;1.85;;;19.30;52.30;;;;;;5018705;28;20041;-93
2021/12/13 11:27:41;;;;;;;3.40;1.30;;;19.30;52.20;;;;;;5018427;28;20053;-92
2021/12/13 11:30:11;;;;;;;3.03;1.40;;;19.30;52.20;;;;;;5002702;28;20068;-92
2021/12/13 11:32:39;;;;;;;3.17;1.15;;;19.40;52.20;;;;;;5016533;28;20099;-89
2021/12/13 11:35:21;;;;;;;2.85;1.10;;;21.00;53.10;;;;;;5015110;28;20053;-89
2021/12/13 11:38:16;;;;;;;2.78;1.30;;;21.00;53.10;;;;;;5012900;28;20049;-90
2021/12/13 11:41:06;;;;;;;2.67;1.27;;;19.40;52.20;;;;;;5014351;28;20038;-92
2021/12/13 11:43:56;;;;;;;3.17;1.25;;;19.30;52.10;;;;;;5007467;28;20046;-91
2021/12/13 11:46:56;;;;;;;2.50;1.23;;;19.30;52.10;;;;;;4995636;28;20375;-91
2021/12/13 11:49:39;;;;;;;2.05;1.00;;;19.40;52.10;;;;;;4994854;28;20429;-89
2021/12/13 11:52:29;;;;;;;2.20;1.00;;;19.40;52.10;;;;;;4995330;28;20068;-88
2021/12/13 11:55:17;;;;;;;2.38;1.20;;;19.40;52.10;;;;;;4995397;28;20046;-88
2021/12/13 11:58:00;;;;;;;1.90;0.90;;;19.40;52.10;;;;;;4978790;28;20057;-88
2021/12/13 12:00:45;;;;;;;2.45;1.13;;;19.40;52.10;;;;;;4986383;28;20116;-91
2021/12/13 12:03:41;;;;;;;2.88;1.25;;;19.40;52.10;;;;;;5006839;28;20076;-91
2021/12/13 12:06:40;;;;;;;3.65;1.20;;;19.40;52.00;;;;;;5001206;28;20096;-91
2021/12/13 12:09:41;;;;;;;2.13;1.00;;;19.30;52.00;;;;;;5015098;28;20045;-90
2021/12/13 12:12:35;;;;;;;1.75;0.88;;;20.10;52.40;;;;;;5009216;28;20088;-90
2021/12/13 12:15:03;;;;;;;1.60;0.93;;;19.40;52.00;;;;;;5016170;28;20136;-91
2021/12/13 12:17:29;;;;;;;3.05;0.90;;;19.40;52.00;;;;;;4998621;28;20092;-91
2021/12/13 12:20:15;;;;;;;1.60;0.90;;;19.60;52.10;;;;;;5015146;28;20578;-91
2021/12/13 12:23:11;;;;;;;2.15;1.00;;;19.70;52.20;;;;;;5015398;28;20072;-89
2021/12/13 12:25:40;;;;;;;1.60;0.88;;;19.40;52.00;;;;;;5011702;28;20519;-85
2021/12/13 12:28:46;;;;;;;;;;;;;;;;;;;;;
2021/12/13 12:31:37;;;;;;;3.08;1.23;;;19.30;52.20;;;;;;4946514;28;20052;-93
2021/12/13 12:37:36;;;;;;;6.45;0.77;;;18.30;51.80;;;;;;4999571;28;19921;-84
2021/12/13 12:40:20;;;;;;;5.78;1.10;;;17.00;51.20;;;;;;5008192;28;20109;-84
2021/12/13 12:43:00;;;;;;;3.20;1.00;;;19.30;52.40;;;;;;4993142;28;20042;-83
2021/12/13 12:45:35;;;;;;;3.17;0.90;;;17.50;51.90;;;;;;4979843;28;20049;-84
2021/12/13 12:48:31;;;;;;;3.33;1.20;;;17.90;52.00;;;;;;5000958;28;20163;-84
2021/12/13 12:51:22;;;;;;;2.75;1.25;;;19.50;52.90;;;;;;5000413;28;20077;-86
2021/12/13 12:53:59;;;;;;;3.47;1.10;;;19.40;52.80;;;;;;5011028;28;20136;-85
2021/12/13 13:02:57;;;;;;;3.00;1.25;;;19.50;53.10;;;;;;5023747;28;20045;-86
2021/12/13 13:05:26;;;;;;;2.85;1.17;;;19.70;53.30;;;;;;4992925;28;20585;-87
2021/12/13 13:07:52;;;;;;;2.95;1.40;;;21.30;54.10;;;;;;5012383;28;20069;-88
2021/12/13 13:10:52;;;;;;;2.60;1.20;;;19.50;53.20;;;;;;4996378;28;20077;-87
2021/12/13 13:13:18;;;;;;;2.45;1.10;;;20.20;53.50;;;;;;4937250;28;20140;-85
2021/12/13 13:15:47;;;;;;;3.70;1.30;;;17.00;51.80;;;;;;5008938;28;20128;-85
2021/12/13 13:18:14;;;;;;;2.28;1.13;;;19.20;52.80;;;;;;5000824;28;20049;-85
2021/12/13 13:20:53;;;;;;;4.35;1.10;;;21.30;53.80;;;;;;4991328;28;20161;-84
2021/12/13 13:23:20;;;;;;;2.83;1.00;;;19.60;52.90;;;;;;4992673;28;20057;-84
2021/12/13 13:25:57;;;;;;;3.17;1.23;;;19.60;52.90;;;;;;5001712;28;20100;-85
2021/12/13 13:28:25;;;;;;;2.63;1.05;;;19.70;52.80;;;;;;5011817;28;20045;-84
2021/12/13 13:30:57;;;;;;;2.63;1.10;;;19.60;52.70;;;;;;4979547;28;20056;-85
2021/12/13 13:33:41;;;;;;;1.98;0.90;;;19.70;52.70;;;;;;4999717;28;20045;-84
2021/12/13 13:36:07;;;;;;;3.95;1.00;;;19.70;52.60;;;;;;5006418;28;20041;-85
2021/12/13 13:38:33;;;;;;;6.75;4.13;;;20.10;52.90;;;;;;4994060;28;20145;-84
2021/12/13 13:41:00;;;;;;;8.10;5.35;;;19.70;52.40;;;;;;5009520;28;20075;-85
2021/12/13 13:43:31;;;;;;;15.57;7.50;;;19.60;52.10;;;;;;5010992;28;20481;-85
2021/12/13 13:45:56;;;;;;;9.48;6.78;;;19.60;51.70;;;;;;5010609;28;20042;-84
2021/12/13 13:48:24;;;;;;;9.05;6.15;;;21.00;52.30;;;;;;5007169;28;20053;-85
2021/12/13 13:50:55;;;;;;;12.52;6.88;;;19.60;51.30;;;;;;5010127;28;20154;-86
2021/12/13 13:53:53;;;;;;;9.98;6.38;;;19.60;52.10;;;;;;4995304;28;20052;-87
2021/12/13 13:56:21;;;;;;;9.77;6.95;;;19.50;51.40;;;;;;4999701;28;20063;-85
2021/12/13 13:58:49;;;;;;;14.68;7.07;;;19.50;51.30;;;;;;5000941;28;20100;-80
2021/12/13 14:01:43;;;;;;;13.05;6.57;;;19.40;51.30;;;;;;4964686;28;20046;-81
2021/12/13 14:04:27;;;;;;;10.98;7.03;;;19.40;51.20;;;;;;4956749;28;20055;-79
2021/12/13 14:06:55;;;;;;;8.80;6.50;;;19.30;51.20;;;;;;4969108;28;20045;-81
2021/12/13 14:09:26;;;;;;;10.50;6.88;;;19.30;51.20;;;;;;4969154;28;20094;-81
2021/12/13 14:11:57;;;;;;;9.43;6.20;;;19.30;51.20;;;;;;4971875;28;20035;-81
2021/12/13 14:14:38;;;;;;;11.45;6.78;;;19.30;51.30;;;;;;4971275;28;20133;-80
2021/12/13 14:17:04;;;;;;;12.43;6.78;;;19.20;51.20;;;;;;4988219;28;20038;-83
2021/12/13 14:19:36;;;;;;;8.45;6.18;;;19.20;51.20;;;;;;4971799;28;20100;-84
2021/12/13 14:22:02;;;;;;;11.20;7.13;;;20.60;52.10;;;;;;4970346;28;20050;-84
2021/12/13 14:24:41;;;;;;;8.75;6.60;;;19.10;51.30;;;;;;4971656;28;20050;-84
2021/12/13 14:27:28;;;;;;;9.82;6.53;;;19.00;51.30;;;;;;4968725;28;20042;-84